< < Back
Terminal Aerodrome Forecast


Current Version              Previous Versions:   1  2  3  4  5  6  7  8  9  

Terminal Aerodrome Forecast

313
FTUS42 KFFC 300100 AAA
TAFFTY
TAF AMD
KFTY 300136Z 3002/3024 32004KT P6SM SKC
     FM301400 35008KT P6SM SKC=



Latest METAR

148
SAUS70 KWBC 301700 RRG
MTRFTY
METAR KFTY 301653Z VRB03KT 10SM CLR 17/03 A3007 RMK AO2 SLP178
T01670033


USA.gov is the U.S. government's official web portal to all federal, state and local government web resources and services.